sensor_id;sensor_type;location;lat;lon;timestamp;pressure;altitude;pressure_sealevel;temperature
64600;BMP280;6553;48.412;9.514;2024-01-07T00:01:08;71555.13;;;18.85
64600;BMP280;6553;48.412;9.514;2024-01-07T00:03:35;71561.72;;;18.86
64600;BMP280;6553;48.412;9.514;2024-01-07T00:06:01;71561.72;;;18.86
64600;BMP280;6553;48.412;9.514;2024-01-07T00:08:27;71556.72;;;18.86
64600;BMP280;6553;48.412;9.514;2024-01-07T00:10:53;71552.88;;;18.85
64600;BMP280;6553;48.412;9.514;2024-01-07T00:13:18;71551.28;;;18.84
64600;BMP280;6553;48.412;9.514;2024-01-07T00:15:44;71558.94;;;18.86
64600;BMP280;6553;48.412;9.514;2024-01-07T00:18:10;71555.66;;;18.85
64600;BMP280;6553;48.412;9.514;2024-01-07T00:20:36;71555.66;;;18.85
64600;BMP280;6553;48.412;9.514;2024-01-07T00:23:01;71555.13;;;18.85
64600;BMP280;6553;48.412;9.514;2024-01-07T00:25:27;71555.13;;;18.85
64600;BMP280;6553;48.412;9.514;2024-01-07T00:27:53;71555.13;;;18.85
64600;BMP280;6553;48.412;9.514;2024-01-07T00:30:21;71556.19;;;18.86
64600;BMP280;6553;48.412;9.514;2024-01-07T00:32:46;71556.81;;;18.84
64600;BMP280;6553;48.412;9.514;2024-01-07T00:35:12;71556.19;;;18.86
64600;BMP280;6553;48.412;9.514;2024-01-07T00:37:38;71555.66;;;18.85
64600;BMP280;6553;48.412;9.514;2024-01-07T00:40:05;71555.13;;;18.85
64600;BMP280;6553;48.412;9.514;2024-01-07T00:42:32;71555.13;;;18.85
64600;BMP280;6553;48.412;9.514;2024-01-07T00:44:57;71553.41;;;18.86
64600;BMP280;6553;48.412;9.514;2024-01-07T00:47:23;71559.47;;;18.86
64600;BMP280;6553;48.412;9.514;2024-01-07T00:49:49;71556.72;;;18.86
64600;BMP280;6553;48.412;9.514;2024-01-07T00:52:15;71558.94;;;18.86
64600;BMP280;6553;48.412;9.514;2024-01-07T00:54:40;71561.06;;;18.88
64600;BMP280;6553;48.412;9.514;2024-01-07T00:57:06;71556.72;;;18.86
64600;BMP280;6553;48.412;9.514;2024-01-07T00:59:32;71557.78;;;18.87
64600;BMP280;6553;48.412;9.514;2024-01-07T01:01:58;71552.88;;;18.85
64600;BMP280;6553;48.412;9.514;2024-01-07T01:04:23;71561.72;;;18.86
64600;BMP280;6553;48.412;9.514;2024-01-07T01:06:49;71558.94;;;18.86
64600;BMP280;6553;48.412;9.514;2024-01-07T01:09:15;71561.06;;;18.88
64600;BMP280;6553;48.412;9.514;2024-01-07T01:11:40;71555.66;;;18.85
64600;BMP280;6553;48.412;9.514;2024-01-07T01:14:06;71555.66;;;18.85
64600;BMP280;6553;48.412;9.514;2024-01-07T01:16:32;71554.56;;;18.84
64600;BMP280;6553;48.412;9.514;2024-01-07T01:18:58;71557.88;;;18.85
64600;BMP280;6553;48.412;9.514;2024-01-07T01:21:23;71558.41;;;18.85
64600;BMP280;6553;48.412;9.514;2024-01-07T01:23:49;71554.47;;;18.87
64600;BMP280;6553;48.412;9.514;2024-01-07T01:26:16;71555.00;;;18.87
64600;BMP280;6553;48.412;9.514;2024-01-07T01:28:42;71558.41;;;18.85
64600;BMP280;6553;48.412;9.514;2024-01-07T01:31:07;71555.00;;;18.87
64600;BMP280;6553;48.412;9.514;2024-01-07T01:33:33;71561.06;;;18.88
64600;BMP280;6553;48.412;9.514;2024-01-07T01:36:04;71556.72;;;18.86
64600;BMP280;6553;48.412;9.514;2024-01-07T01:38:30;71560.00;;;18.87
64600;BMP280;6553;48.412;9.514;2024-01-07T01:40:55;71558.28;;;18.88
64600;BMP280;6553;48.412;9.514;2024-01-07T01:43:28;71560.94;;;18.90
64600;BMP280;6553;48.412;9.514;2024-01-07T01:45:56;71558.19;;;18.90
64600;BMP280;6553;48.412;9.514;2024-01-07T01:48:23;71560.94;;;18.90
64600;BMP280;6553;48.412;9.514;2024-01-07T01:50:50;71561.59;;;18.88
64600;BMP280;6553;48.412;9.514;2024-01-07T01:53:16;71558.28;;;18.88
64600;BMP280;6553;48.412;9.514;2024-01-07T01:55:43;71560.00;;;18.87
64600;BMP280;6553;48.412;9.514;2024-01-07T01:58:09;71560.53;;;18.87
64600;BMP280;6553;48.412;9.514;2024-01-07T02:00:35;71557.78;;;18.87
64600;BMP280;6553;48.412;9.514;2024-01-07T02:03:01;71557.22;;;18.87
64600;BMP280;6553;48.412;9.514;2024-01-07T02:05:27;71557.22;;;18.87
64600;BMP280;6553;48.412;9.514;2024-01-07T02:07:54;71557.78;;;18.87
64600;BMP280;6553;48.412;9.514;2024-01-07T02:10:22;71553.41;;;18.86
64600;BMP280;6553;48.412;9.514;2024-01-07T02:12:48;71553.41;;;18.86
64600;BMP280;6553;48.412;9.514;2024-01-07T02:15:15;71553.41;;;18.86
64600;BMP280;6553;48.412;9.514;2024-01-07T02:17:41;71559.34;;;18.89
64600;BMP280;6553;48.412;9.514;2024-01-07T02:20:07;71555.53;;;18.88
64600;BMP280;6553;48.412;9.514;2024-01-07T02:22:33;71558.28;;;18.88
64600;BMP280;6553;48.412;9.514;2024-01-07T02:24:59;71561.06;;;18.88
64600;BMP280;6553;48.412;9.514;2024-01-07T02:27:24;71559.47;;;18.86
64600;BMP280;6553;48.412;9.514;2024-01-07T02:29:51;71558.28;;;18.88
64600;BMP280;6553;48.412;9.514;2024-01-07T02:32:17;71558.72;;;18.91
64600;BMP280;6553;48.412;9.514;2024-01-07T02:34:43;71559.25;;;18.91
64600;BMP280;6553;48.412;9.514;2024-01-07T02:37:09;71564.25;;;18.91
64600;BMP280;6553;48.412;9.514;2024-01-07T02:39:35;71560.44;;;18.90
64600;BMP280;6553;48.412;9.514;2024-01-07T02:42:01;71558.19;;;18.90
64600;BMP280;6553;48.412;9.514;2024-01-07T02:44:27;71562.66;;;18.89
64600;BMP280;6553;48.412;9.514;2024-01-07T02:46:52;71561.06;;;18.88
64600;BMP280;6553;48.412;9.514;2024-01-07T02:49:18;71562.13;;;18.89
64600;BMP280;6553;48.412;9.514;2024-01-07T02:51:44;71558.19;;;18.90
64600;BMP280;6553;48.412;9.514;2024-01-07T02:54:15;71563.72;;;18.90
64600;BMP280;6553;48.412;9.514;2024-01-07T02:56:41;71558.72;;;18.91
64600;BMP280;6553;48.412;9.514;2024-01-07T02:59:07;71559.91;;;18.89
64600;BMP280;6553;48.412;9.514;2024-01-07T03:01:33;71558.28;;;18.88
64600;BMP280;6553;48.412;9.514;2024-01-07T03:04:06;71556.06;;;18.88
64600;BMP280;6553;48.412;9.514;2024-01-07T03:06:33;71556.19;;;18.86
64600;BMP280;6553;48.412;9.514;2024-01-07T03:08:59;71558.28;;;18.88
64600;BMP280;6553;48.412;9.514;2024-01-07T03:11:24;71557.78;;;18.87
64600;BMP280;6553;48.412;9.514;2024-01-07T03:13:50;71556.59;;;18.89
64600;BMP280;6553;48.412;9.514;2024-01-07T03:16:24;71562.56;;;18.92
64600;BMP280;6553;48.412;9.514;2024-01-07T03:18:50;71564.25;;;18.91
64600;BMP280;6553;48.412;9.514;2024-01-07T03:21:18;71567.00;;;18.91
64600;BMP280;6553;48.412;9.514;2024-01-07T03:23:44;71559.25;;;18.91
64600;BMP280;6553;48.412;9.514;2024-01-07T03:26:10;71563.19;;;18.90
64600;BMP280;6553;48.412;9.514;2024-01-07T03:28:35;71562.66;;;18.89
64600;BMP280;6553;48.412;9.514;2024-01-07T03:31:15;71561.59;;;18.88
64600;BMP280;6553;48.412;9.514;2024-01-07T03:33:42;71556.59;;;18.89
64600;BMP280;6553;48.412;9.514;2024-01-07T03:36:13;71557.13;;;18.89
64600;BMP280;6553;48.412;9.514;2024-01-07T03:38:40;71558.81;;;18.88
64600;BMP280;6553;48.412;9.514;2024-01-07T03:41:06;71559.34;;;18.89
64600;BMP280;6553;48.412;9.514;2024-01-07T03:43:33;71558.81;;;18.88
64600;BMP280;6553;48.412;9.514;2024-01-07T03:45:59;71560.53;;;18.87
64600;BMP280;6553;48.412;9.514;2024-01-07T03:48:26;71555.00;;;18.87
64600;BMP280;6553;48.412;9.514;2024-01-07T03:50:51;71557.88;;;18.85
64600;BMP280;6553;48.412;9.514;2024-01-07T03:53:17;71554.47;;;18.87
64600;BMP280;6553;48.412;9.514;2024-01-07T03:55:43;71557.22;;;18.87
64600;BMP280;6553;48.412;9.514;2024-01-07T03:58:09;71554.47;;;18.87
64600;BMP280;6553;48.412;9.514;2024-01-07T04:00:34;71558.28;;;18.88
64600;BMP280;6553;48.412;9.514;2024-01-07T04:03:01;71556.72;;;18.86
64600;BMP280;6553;48.412;9.514;2024-01-07T04:05:28;71556.19;;;18.86
64600;BMP280;6553;48.412;9.514;2024-01-07T04:07:54;71557.22;;;18.87
64600;BMP280;6553;48.412;9.514;2024-01-07T04:10:20;71555.53;;;18.88
64600;BMP280;6553;48.412;9.514;2024-01-07T04:12:46;71563.72;;;18.90
64600;BMP280;6553;48.412;9.514;2024-01-07T04:15:12;71564.34;;;18.88
64600;BMP280;6553;48.412;9.514;2024-01-07T04:17:38;71558.81;;;18.88
64600;BMP280;6553;48.412;9.514;2024-01-07T04:20:05;71562.13;;;18.89
64600;BMP280;6553;48.412;9.514;2024-01-07T04:22:31;71562.13;;;18.89
64600;BMP280;6553;48.412;9.514;2024-01-07T04:24:57;71559.34;;;18.89
64600;BMP280;6553;48.412;9.514;2024-01-07T04:27:23;71557.78;;;18.87
64600;BMP280;6553;48.412;9.514;2024-01-07T04:29:51;71559.47;;;18.86
64600;BMP280;6553;48.412;9.514;2024-01-07T04:32:16;71556.06;;;18.88
64600;BMP280;6553;48.412;9.514;2024-01-07T04:34:42;71554.56;;;18.84
64600;BMP280;6553;48.412;9.514;2024-01-07T04:37:08;71559.47;;;18.86
64600;BMP280;6553;48.412;9.514;2024-01-07T04:39:34;71557.78;;;18.87
64600;BMP280;6553;48.412;9.514;2024-01-07T04:41:59;71560.44;;;18.90
64600;BMP280;6553;48.412;9.514;2024-01-07T04:44:25;71560.00;;;18.87
64600;BMP280;6553;48.412;9.514;2024-01-07T04:46:51;71560.53;;;18.87
64600;BMP280;6553;48.412;9.514;2024-01-07T04:49:16;71554.56;;;18.84
64600;BMP280;6553;48.412;9.514;2024-01-07T04:51:42;71562.75;;;18.87
64600;BMP280;6553;48.412;9.514;2024-01-07T04:54:08;71557.88;;;18.85
64600;BMP280;6553;48.412;9.514;2024-01-07T04:56:34;71556.19;;;18.86
64600;BMP280;6553;48.412;9.514;2024-01-07T04:58:59;71557.78;;;18.87
64600;BMP280;6553;48.412;9.514;2024-01-07T05:01:25;71560.53;;;18.87
64600;BMP280;6553;48.412;9.514;2024-01-07T05:03:51;71565.97;;;18.90
64600;BMP280;6553;48.412;9.514;2024-01-07T05:06:17;71559.34;;;18.89
64600;BMP280;6553;48.412;9.514;2024-01-07T05:08:42;71557.13;;;18.89
64600;BMP280;6553;48.412;9.514;2024-01-07T05:11:08;71560.44;;;18.90
64600;BMP280;6553;48.412;9.514;2024-01-07T05:13:37;71562.66;;;18.89
64600;BMP280;6553;48.412;9.514;2024-01-07T05:16:03;71547.75;;;18.88
64600;BMP280;6553;48.412;9.514;2024-01-07T05:18:29;71558.28;;;18.88
64600;BMP280;6553;48.412;9.514;2024-01-07T05:20:55;71555.00;;;18.87
64600;BMP280;6553;48.412;9.514;2024-01-07T05:23:21;71561.06;;;18.88
64600;BMP280;6553;48.412;9.514;2024-01-07T05:25:46;71557.78;;;18.87
64600;BMP280;6553;48.412;9.514;2024-01-07T05:28:13;71560.00;;;18.87
64600;BMP280;6553;48.412;9.514;2024-01-07T05:30:40;71556.72;;;18.86
64600;BMP280;6553;48.412;9.514;2024-01-07T05:33:06;71562.75;;;18.87
64600;BMP280;6553;48.412;9.514;2024-01-07T05:35:32;71558.94;;;18.86
64600;BMP280;6553;48.412;9.514;2024-01-07T05:37:58;71560.00;;;18.87
64600;BMP280;6553;48.412;9.514;2024-01-07T05:40:24;71556.19;;;18.86
64600;BMP280;6553;48.412;9.514;2024-01-07T05:42:49;71552.88;;;18.85
64600;BMP280;6553;48.412;9.514;2024-01-07T05:45:15;71557.88;;;18.85
64600;BMP280;6553;48.412;9.514;2024-01-07T05:47:41;71551.28;;;18.84
64600;BMP280;6553;48.412;9.514;2024-01-07T05:50:07;71558.41;;;18.85
64600;BMP280;6553;48.412;9.514;2024-01-07T05:52:34;71555.53;;;18.88
64600;BMP280;6553;48.412;9.514;2024-01-07T05:55:00;71561.47;;;18.91
64600;BMP280;6553;48.412;9.514;2024-01-07T05:57:26;71555.53;;;18.88
64600;BMP280;6553;48.412;9.514;2024-01-07T05:59:52;71557.66;;;18.90
64600;BMP280;6553;48.412;9.514;2024-01-07T06:02:18;71561.06;;;18.88
64600;BMP280;6553;48.412;9.514;2024-01-07T06:04:44;71557.78;;;18.87
64600;BMP280;6553;48.412;9.514;2024-01-07T06:07:09;71562.13;;;18.89
64600;BMP280;6553;48.412;9.514;2024-01-07T06:09:35;71561.06;;;18.88
64600;BMP280;6553;48.412;9.514;2024-01-07T06:12:01;71558.28;;;18.88
64600;BMP280;6553;48.412;9.514;2024-01-07T06:14:27;71561.47;;;18.91
64600;BMP280;6553;48.412;9.514;2024-01-07T06:16:53;71561.06;;;18.88
64600;BMP280;6553;48.412;9.514;2024-01-07T06:19:19;71556.06;;;18.88
64600;BMP280;6553;48.412;9.514;2024-01-07T06:21:45;71563.19;;;18.90
64600;BMP280;6553;48.412;9.514;2024-01-07T06:24:11;71564.25;;;18.91
64600;BMP280;6553;48.412;9.514;2024-01-07T06:26:37;71553.94;;;18.86
64600;BMP280;6553;48.412;9.514;2024-01-07T06:29:03;71558.19;;;18.90
64600;BMP280;6553;48.412;9.514;2024-01-07T06:31:28;71560.94;;;18.90
64600;BMP280;6553;48.412;9.514;2024-01-07T06:33:54;71562.03;;;18.91
64600;BMP280;6553;48.412;9.514;2024-01-07T06:36:25;71559.91;;;18.89
64600;BMP280;6553;48.412;9.514;2024-01-07T06:38:51;71557.78;;;18.87
64600;BMP280;6553;48.412;9.514;2024-01-07T06:41:16;71561.59;;;18.88
64600;BMP280;6553;48.412;9.514;2024-01-07T06:43:42;71563.19;;;18.90
64600;BMP280;6553;48.412;9.514;2024-01-07T06:46:08;71559.91;;;18.89
64600;BMP280;6553;48.412;9.514;2024-01-07T06:48:34;71559.34;;;18.89
64600;BMP280;6553;48.412;9.514;2024-01-07T06:51:00;71557.66;;;18.90
64600;BMP280;6553;48.412;9.514;2024-01-07T06:53:25;71558.72;;;18.91
64600;BMP280;6553;48.412;9.514;2024-01-07T06:55:51;71564.78;;;18.91
64600;BMP280;6553;48.412;9.514;2024-01-07T06:58:17;71560.44;;;18.90
64600;BMP280;6553;48.412;9.514;2024-01-07T07:00:42;71562.13;;;18.89
64600;BMP280;6553;48.412;9.514;2024-01-07T07:03:08;71562.13;;;18.89
64600;BMP280;6553;48.412;9.514;2024-01-07T07:05:34;71560.94;;;18.90
64600;BMP280;6553;48.412;9.514;2024-01-07T07:08:01;71562.56;;;18.92
64600;BMP280;6553;48.412;9.514;2024-01-07T07:10:27;71562.03;;;18.91
64600;BMP280;6553;48.412;9.514;2024-01-07T07:12:53;71557.66;;;18.90
64600;BMP280;6553;48.412;9.514;2024-01-07T07:15:19;71563.72;;;18.90
64600;BMP280;6553;48.412;9.514;2024-01-07T07:17:45;71559.25;;;18.91
64600;BMP280;6553;48.412;9.514;2024-01-07T07:20:11;71562.66;;;18.89
64600;BMP280;6553;48.412;9.514;2024-01-07T07:22:37;71562.13;;;18.89
64600;BMP280;6553;48.412;9.514;2024-01-07T07:25:03;71560.94;;;18.90
64600;BMP280;6553;48.412;9.514;2024-01-07T07:27:29;71561.06;;;18.88
64600;BMP280;6553;48.412;9.514;2024-01-07T07:29:55;71561.59;;;18.88
64600;BMP280;6553;48.412;9.514;2024-01-07T07:32:20;71559.25;;;18.91
64600;BMP280;6553;48.412;9.514;2024-01-07T07:34:46;71556.59;;;18.89
64600;BMP280;6553;48.412;9.514;2024-01-07T07:37:13;71560.44;;;18.90
64600;BMP280;6553;48.412;9.514;2024-01-07T07:39:39;71564.25;;;18.91
64600;BMP280;6553;48.412;9.514;2024-01-07T07:42:05;71563.59;;;18.93
64600;BMP280;6553;48.412;9.514;2024-01-07T07:44:32;71564.13;;;18.93
64600;BMP280;6553;48.412;9.514;2024-01-07T07:46:57;71563.59;;;18.93
64600;BMP280;6553;48.412;9.514;2024-01-07T07:49:23;71559.25;;;18.91
64600;BMP280;6553;48.412;9.514;2024-01-07T07:51:49;71560.84;;;18.93
64600;BMP280;6553;48.412;9.514;2024-01-07T07:54:15;71565.31;;;18.92
64600;BMP280;6553;48.412;9.514;2024-01-07T07:56:40;71561.47;;;18.91
64600;BMP280;6553;48.412;9.514;2024-01-07T07:59:06;71559.25;;;18.91
64600;BMP280;6553;48.412;9.514;2024-01-07T08:01:34;71564.25;;;18.91
64600;BMP280;6553;48.412;9.514;2024-01-07T08:04:00;71563.59;;;18.93
64600;BMP280;6553;48.412;9.514;2024-01-07T08:06:28;71561.47;;;18.91
64600;BMP280;6553;48.412;9.514;2024-01-07T08:08:53;71564.25;;;18.91
64600;BMP280;6553;48.412;9.514;2024-01-07T08:11:20;71559.25;;;18.91
64600;BMP280;6553;48.412;9.514;2024-01-07T08:13:46;71557.13;;;18.89
64600;BMP280;6553;48.412;9.514;2024-01-07T08:16:12;71562.66;;;18.89
64600;BMP280;6553;48.412;9.514;2024-01-07T08:18:37;71558.19;;;18.90
64600;BMP280;6553;48.412;9.514;2024-01-07T08:21:03;71562.03;;;18.91
64600;BMP280;6553;48.412;9.514;2024-01-07T08:23:29;71558.72;;;18.91
64600;BMP280;6553;48.412;9.514;2024-01-07T08:25:54;71564.25;;;18.91
64600;BMP280;6553;48.412;9.514;2024-01-07T08:28:20;71561.47;;;18.91
64600;BMP280;6553;48.412;9.514;2024-01-07T08:30:46;71568.59;;;18.92
64600;BMP280;6553;48.412;9.514;2024-01-07T08:33:12;71565.84;;;18.92
64600;BMP280;6553;48.412;9.514;2024-01-07T08:35:38;71562.56;;;18.92
64600;BMP280;6553;48.412;9.514;2024-01-07T08:38:04;71563.06;;;18.92
64600;BMP280;6553;48.412;9.514;2024-01-07T08:40:31;71562.97;;;18.95
64600;BMP280;6553;48.412;9.514;2024-01-07T08:42:56;71569.03;;;18.95
64600;BMP280;6553;48.412;9.514;2024-01-07T08:45:22;71570.09;;;18.96
64600;BMP280;6553;48.412;9.514;2024-01-07T08:47:48;71567.97;;;18.94
64600;BMP280;6553;48.412;9.514;2024-01-07T08:50:14;71568.50;;;18.95
64600;BMP280;6553;48.412;9.514;2024-01-07T08:52:40;71564.66;;;18.94
64600;BMP280;6553;48.412;9.514;2024-01-07T08:55:06;71560.84;;;18.93
64600;BMP280;6553;48.412;9.514;2024-01-07T08:57:36;71563.59;;;18.93
64600;BMP280;6553;48.412;9.514;2024-01-07T09:00:05;71568.50;;;18.95
64600;BMP280;6553;48.412;9.514;2024-01-07T09:02:33;71568.50;;;18.95
64600;BMP280;6553;48.412;9.514;2024-01-07T09:04:59;71564.03;;;18.96
64600;BMP280;6553;48.412;9.514;2024-01-07T09:07:25;71573.91;;;18.97
64600;BMP280;6553;48.412;9.514;2024-01-07T09:09:50;71566.81;;;18.96
64600;BMP280;6553;48.412;9.514;2024-01-07T09:12:16;71564.13;;;18.93
64600;BMP280;6553;48.412;9.514;2024-01-07T09:14:42;71569.56;;;18.96
64600;BMP280;6553;48.412;9.514;2024-01-07T09:17:08;71562.97;;;18.95
64600;BMP280;6553;48.412;9.514;2024-01-07T09:19:34;71565.72;;;18.95
64600;BMP280;6553;48.412;9.514;2024-01-07T09:21:59;71568.38;;;18.97
64600;BMP280;6553;48.412;9.514;2024-01-07T09:24:25;71561.88;;;18.94
64600;BMP280;6553;48.412;9.514;2024-01-07T09:26:51;71564.03;;;18.96
64600;BMP280;6553;48.412;9.514;2024-01-07T09:29:17;71566.81;;;18.96
64600;BMP280;6553;48.412;9.514;2024-01-07T09:31:43;71564.13;;;18.93
64600;BMP280;6553;48.412;9.514;2024-01-07T09:34:09;71567.84;;;18.97
64600;BMP280;6553;48.412;9.514;2024-01-07T09:36:34;71570.72;;;18.94
64600;BMP280;6553;48.412;9.514;2024-01-07T09:39:02;71567.41;;;18.94
64600;BMP280;6553;48.412;9.514;2024-01-07T09:41:30;71564.13;;;18.93
64600;BMP280;6553;48.412;9.514;2024-01-07T09:43:57;71562.44;;;18.94
64600;BMP280;6553;48.412;9.514;2024-01-07T09:46:26;71561.34;;;18.93
64600;BMP280;6553;48.412;9.514;2024-01-07T09:48:54;71569.56;;;18.96
64600;BMP280;6553;48.412;9.514;2024-01-07T09:51:22;71569.03;;;18.95
64600;BMP280;6553;48.412;9.514;2024-01-07T09:53:57;71568.50;;;18.95
64600;BMP280;6553;48.412;9.514;2024-01-07T09:56:26;71568.50;;;18.95
64600;BMP280;6553;48.412;9.514;2024-01-07T09:58:54;71568.50;;;18.95
64600;BMP280;6553;48.412;9.514;2024-01-07T10:01:20;71571.13;;;18.97
64600;BMP280;6553;48.412;9.514;2024-01-07T10:03:46;71572.22;;;18.98
64600;BMP280;6553;48.412;9.514;2024-01-07T10:06:12;71563.50;;;18.95
64600;BMP280;6553;48.412;9.514;2024-01-07T10:08:39;71565.72;;;18.95
64600;BMP280;6553;48.412;9.514;2024-01-07T10:11:05;71563.59;;;18.93
64600;BMP280;6553;48.412;9.514;2024-01-07T10:13:31;71566.38;;;18.93
64600;BMP280;6553;48.412;9.514;2024-01-07T10:15:57;71564.66;;;18.94
64600;BMP280;6553;48.412;9.514;2024-01-07T10:18:25;71567.41;;;18.94
64600;BMP280;6553;48.412;9.514;2024-01-07T10:20:51;71560.84;;;18.93
64600;BMP280;6553;48.412;9.514;2024-01-07T10:23:20;71562.03;;;18.91
64600;BMP280;6553;48.412;9.514;2024-01-07T10:25:46;71565.31;;;18.92
64600;BMP280;6553;48.412;9.514;2024-01-07T10:28:13;71569.03;;;18.95
64600;BMP280;6553;48.412;9.514;2024-01-07T10:30:40;71561.34;;;18.93
64600;BMP280;6553;48.412;9.514;2024-01-07T10:33:07;71567.41;;;18.94
64600;BMP280;6553;48.412;9.514;2024-01-07T10:35:36;71563.59;;;18.93
64600;BMP280;6553;48.412;9.514;2024-01-07T10:38:03;71562.56;;;18.92
64600;BMP280;6553;48.412;9.514;2024-01-07T10:40:31;71566.88;;;18.93
64600;BMP280;6553;48.412;9.514;2024-01-07T10:42:58;71567.41;;;18.94
64600;BMP280;6553;48.412;9.514;2024-01-07T10:45:24;71565.31;;;18.92
64600;BMP280;6553;48.412;9.514;2024-01-07T10:47:54;71563.59;;;18.93
64600;BMP280;6553;48.412;9.514;2024-01-07T10:50:22;71565.72;;;18.95
64600;BMP280;6553;48.412;9.514;2024-01-07T10:52:50;71563.50;;;18.95
64600;BMP280;6553;48.412;9.514;2024-01-07T10:55:18;71567.34;;;18.96
64600;BMP280;6553;48.412;9.514;2024-01-07T10:57:47;71564.03;;;18.96
64600;BMP280;6553;48.412;9.514;2024-01-07T11:00:17;71567.34;;;18.96
64600;BMP280;6553;48.412;9.514;2024-01-07T11:03:04;71560.84;;;18.93
64600;BMP280;6553;48.412;9.514;2024-01-07T11:05:44;71572.34;;;18.96
64600;BMP280;6553;48.412;9.514;2024-01-07T11:08:42;71567.84;;;18.97
64600;BMP280;6553;48.412;9.514;2024-01-07T11:11:21;71563.50;;;18.95
64600;BMP280;6553;48.412;9.514;2024-01-07T11:13:49;71570.09;;;18.96
64600;BMP280;6553;48.412;9.514;2024-01-07T11:16:42;71569.56;;;18.96
64600;BMP280;6553;48.412;9.514;2024-01-07T11:19:13;71565.06;;;18.97
64600;BMP280;6553;48.412;9.514;2024-01-07T11:21:40;71564.56;;;18.96
64600;BMP280;6553;48.412;9.514;2024-01-07T11:24:05;71568.38;;;18.97
64600;BMP280;6553;48.412;9.514;2024-01-07T11:26:31;71568.91;;;18.98
64600;BMP280;6553;48.412;9.514;2024-01-07T11:29:00;71567.84;;;18.97
64600;BMP280;6553;48.412;9.514;2024-01-07T11:31:43;71565.72;;;18.95
64600;BMP280;6553;48.412;9.514;2024-01-07T11:34:09;71567.41;;;18.94
64600;BMP280;6553;48.412;9.514;2024-01-07T11:36:37;71563.06;;;18.92
64600;BMP280;6553;48.412;9.514;2024-01-07T11:39:04;71564.66;;;18.94
64600;BMP280;6553;48.412;9.514;2024-01-07T11:41:34;71565.06;;;18.97
64600;BMP280;6553;48.412;9.514;2024-01-07T11:44:01;71572.34;;;18.96
64600;BMP280;6553;48.412;9.514;2024-01-07T11:46:27;71570.59;;;18.97
64600;BMP280;6553;48.412;9.514;2024-01-07T11:48:58;71567.84;;;18.97
64600;BMP280;6553;48.412;9.514;2024-01-07T11:51:29;71564.13;;;18.93
64600;BMP280;6553;48.412;9.514;2024-01-07T11:54:01;71567.41;;;18.94
64600;BMP280;6553;48.412;9.514;2024-01-07T11:56:28;71563.59;;;18.93
64600;BMP280;6553;48.412;9.514;2024-01-07T11:58:54;71561.88;;;18.94
64600;BMP280;6553;48.412;9.514;2024-01-07T12:01:21;71564.66;;;18.94
64600;BMP280;6553;48.412;9.514;2024-01-07T12:03:47;71560.31;;;18.92
64600;BMP280;6553;48.412;9.514;2024-01-07T12:06:13;71566.25;;;18.95
64600;BMP280;6553;48.412;9.514;2024-01-07T12:08:41;71563.59;;;18.93
64600;BMP280;6553;48.412;9.514;2024-01-07T12:11:09;71565.19;;;18.94
64600;BMP280;6553;48.412;9.514;2024-01-07T12:13:37;71564.56;;;18.96
64600;BMP280;6553;48.412;9.514;2024-01-07T12:16:05;71567.22;;;18.99
64600;BMP280;6553;48.412;9.514;2024-01-07T12:18:31;71569.56;;;18.96
64600;BMP280;6553;48.412;9.514;2024-01-07T12:20:59;71565.59;;;18.97
64600;BMP280;6553;48.412;9.514;2024-01-07T12:23:26;71568.91;;;18.98
64600;BMP280;6553;48.412;9.514;2024-01-07T12:25:55;71564.03;;;18.96
64600;BMP280;6553;48.412;9.514;2024-01-07T12:28:32;71567.34;;;18.96
64600;BMP280;6553;48.412;9.514;2024-01-07T12:30:58;71564.03;;;18.96
64600;BMP280;6553;48.412;9.514;2024-01-07T12:33:25;71565.59;;;18.97
64600;BMP280;6553;48.412;9.514;2024-01-07T12:35:51;71562.97;;;18.95
64600;BMP280;6553;48.412;9.514;2024-01-07T12:38:26;71562.56;;;18.92
64600;BMP280;6553;48.412;9.514;2024-01-07T12:40:53;71566.88;;;18.93
64600;BMP280;6553;48.412;9.514;2024-01-07T12:43:19;71560.84;;;18.93
64600;BMP280;6553;48.412;9.514;2024-01-07T12:45:47;71562.44;;;18.94
64600;BMP280;6553;48.412;9.514;2024-01-07T12:48:13;71564.03;;;18.96
64600;BMP280;6553;48.412;9.514;2024-01-07T12:50:38;71563.50;;;18.95
64600;BMP280;6553;48.412;9.514;2024-01-07T12:53:04;71565.19;;;18.94
64600;BMP280;6553;48.412;9.514;2024-01-07T12:55:31;71565.72;;;18.95
64600;BMP280;6553;48.412;9.514;2024-01-07T12:57:57;71561.88;;;18.94
64600;BMP280;6553;48.412;9.514;2024-01-07T13:00:27;71566.25;;;18.95
64600;BMP280;6553;48.412;9.514;2024-01-07T13:02:54;71561.34;;;18.93
64600;BMP280;6553;48.412;9.514;2024-01-07T13:05:20;71570.72;;;18.94
64600;BMP280;6553;48.412;9.514;2024-01-07T13:07:47;71561.34;;;18.93
64600;BMP280;6553;48.412;9.514;2024-01-07T13:10:13;71563.50;;;18.95
64600;BMP280;6553;48.412;9.514;2024-01-07T13:12:39;71562.03;;;18.91
64600;BMP280;6553;48.412;9.514;2024-01-07T13:15:05;71568.59;;;18.92
64600;BMP280;6553;48.412;9.514;2024-01-07T13:17:31;71557.66;;;18.90
64600;BMP280;6553;48.412;9.514;2024-01-07T13:20:01;71562.66;;;18.89
64600;BMP280;6553;48.412;9.514;2024-01-07T13:22:32;71563.06;;;18.92
64600;BMP280;6553;48.412;9.514;2024-01-07T13:24:58;71559.34;;;18.89
64600;BMP280;6553;48.412;9.514;2024-01-07T13:27:24;71561.47;;;18.91
64600;BMP280;6553;48.412;9.514;2024-01-07T13:29:50;71560.94;;;18.90
64600;BMP280;6553;48.412;9.514;2024-01-07T13:32:15;71563.19;;;18.90
64600;BMP280;6553;48.412;9.514;2024-01-07T13:34:43;71558.72;;;18.91
64600;BMP280;6553;48.412;9.514;2024-01-07T13:37:09;71559.91;;;18.89
64600;BMP280;6553;48.412;9.514;2024-01-07T13:39:36;71560.31;;;18.92
64600;BMP280;6553;48.412;9.514;2024-01-07T13:42:02;71559.91;;;18.89
64600;BMP280;6553;48.412;9.514;2024-01-07T13:44:28;71559.25;;;18.91
64600;BMP280;6553;48.412;9.514;2024-01-07T13:46:53;71561.47;;;18.91
64600;BMP280;6553;48.412;9.514;2024-01-07T13:49:19;71563.19;;;18.90
64600;BMP280;6553;48.412;9.514;2024-01-07T13:51:45;71560.94;;;18.90
64600;BMP280;6553;48.412;9.514;2024-01-07T13:54:11;71566.88;;;18.93
64600;BMP280;6553;48.412;9.514;2024-01-07T13:56:40;71562.03;;;18.91
64600;BMP280;6553;48.412;9.514;2024-01-07T13:59:08;71564.25;;;18.91
64600;BMP280;6553;48.412;9.514;2024-01-07T14:01:34;71565.31;;;18.92
64600;BMP280;6553;48.412;9.514;2024-01-07T14:04:00;71561.06;;;18.88
64600;BMP280;6553;48.412;9.514;2024-01-07T14:06:26;71553.94;;;18.86
64600;BMP280;6553;48.412;9.514;2024-01-07T14:08:52;71558.19;;;18.90
64600;BMP280;6553;48.412;9.514;2024-01-07T14:11:19;71556.06;;;18.88
64600;BMP280;6553;48.412;9.514;2024-01-07T14:13:45;71557.66;;;18.90
64600;BMP280;6553;48.412;9.514;2024-01-07T14:16:13;71561.59;;;18.88
64600;BMP280;6553;48.412;9.514;2024-01-07T14:18:38;71554.47;;;18.87